Flight Track Log - Related Links

Times and Time Zones

All times are in EDT time to prevent confusion due to time zone crossing. See the N45LL flight status page for this flight to view local times or setup timezone preferences in your user account.

Time Position Orientation Groundspeed Altitude Reporting Facility
EDT Latitude Longitude Course Direction KTS MPH feet Rate Location/Type
Sun 03:16:00 PM 35.6452 -83.4759 169° South  Level Estimated
Sun 03:17:00 PM 35.6097 -83.4671 169° South  Level Estimated
Sun 03:18:00 PM 35.5745 -83.4570 167° South  Level FlightAware Approximate
Sun 03:19:00 PM 35.5391 -83.4483 141° Southeast  Level Estimated
Sun 03:20:00 PM 35.5037 -83.4395 172° South  Level Estimated
Sun 03:21:00 PM 35.4683 -83.4304 168° South  Level FlightAware Approximate
Sun 03:22:00 PM 35.4329 -83.4213 168° South  Level FlightAware Approximate
Sun 03:23:00 PM 35.3975 -83.4122 168° South  Level FlightAware Approximate
Sun 03:23:06 PM 35.6633 -83.6553 168° South 133 153 8,200  Level Atlanta Center
Sun 03:24:00 PM 35.3622 -83.4031 168° South  Level FlightAware Approximate
Sun 03:24:06 PM 35.6258 -83.6506 174° South 145 167 8,100  Level Atlanta Center
Sun 03:25:00 PM 35.3203 -83.3925 168° South  Level FlightAware Approximate
Sun 03:25:06 PM 35.5986 -83.6378 159° South 145 167 8,200  Level Atlanta Center
Sun 03:26:00 PM 35.2849 -83.3837 168° South  Level FlightAware Approximate
Sun 03:26:06 PM 35.5653 -83.6278 166° South 145 167 8,200  Level Atlanta Center
Sun 03:27:00 PM 35.2495 -83.3748 168° South  Level FlightAware Approximate
Sun 03:27:06 PM 35.5381 -83.6175 163° South 119 137 9,000  Level Atlanta Center
Sun 03:28:00 PM 35.2140 -83.3660 168° South  Level FlightAware Approximate
Sun 03:28:06 PM 35.5069 -83.6103 169° South 119 137 9,100  Level Atlanta Center
Sun 03:29:06 PM 35.4714 -83.6053 173° South 119 137 9,100  Level Atlanta Center
Sun 03:30:06 PM 35.4378 -83.5953 166° South 125 144 9,100  Level Atlanta Center
Sun 03:31:06 PM 35.4067 -83.5903 173° South 125 144 9,100  Level Atlanta Center
Sun 03:32:06 PM 35.3711 -83.5828 170° South 125 144 9,100 50 Level Atlanta Center
Sun 03:33:06 PM 35.3378 -83.5831 180° South 125 144 9,200  Climbing Atlanta Center
Sun 03:34:06 PM 35.3042 -83.5756 170° South 125 144 9,100 -50 Descending Atlanta Center
Sun 03:35:06 PM 35.2689 -83.5681 170° South 125 144 9,100  Level Atlanta Center
Sun 03:36:06 PM 35.2333 -83.5608 171° South 125 144 9,100 100 Level Atlanta Center
Sun 03:37:06 PM 35.1978 -83.5533 170° South 125 144 9,300 400 Climbing Atlanta Center
Sun 03:38:06 PM 35.1686 -83.5433 164° South 118 136 9,900 450 Climbing Atlanta Center
Sun 03:39:06 PM 35.1414 -83.5333 163° South 113 130 10,200 100 Climbing Atlanta Center
Sun 03:40:06 PM 35.1039 -83.5258 171° South 125 144 10,100 -50 Descending Atlanta Center
Sun 03:41:06 PM 35.0661 -83.5161 168° South 130 150 10,100 -50 Level Atlanta Center
Sun 03:42:06 PM 35.0286 -83.5111 174° South 135 155 10,000 -50 Descending Atlanta Center
Sun 03:43:06 PM 34.9931 -83.5014 167° South 140 161 10,000 50 Level Atlanta Center
Sun 03:44:06 PM 34.9575 -83.4939 170° South 140 161 10,100 50 Climbing Atlanta Center
Sun 03:45:06 PM 34.9222 -83.4942 180° South 135 155 10,100  Level Atlanta Center
Sun 03:46:06 PM 34.8867 -83.4817 164° South 135 155 10,100  Level Atlanta Center
Sun 03:47:06 PM 34.8511 -83.4819 180° South 135 155 10,100  Level Atlanta Center
Sun 03:48:06 PM 34.8156 -83.4694 164° South 135 155 10,100  Level Atlanta Center
Sun 03:49:06 PM 34.7822 -83.4597 167° South 135 155 10,100  Level Atlanta Center
Sun 03:50:06 PM 34.7467 -83.4497 167° South 129 148 10,100  Level Atlanta Center
Sun 03:51:06 PM 34.7069 -83.4425 171° South 135 155 10,100 50 Level Atlanta Center
Sun 03:52:06 PM 34.6736 -83.4325 166° South 135 155 10,200  Climbing Atlanta Center
Sun 03:53:06 PM 34.6381 -83.4228 167° South 135 155 10,100  Descending Atlanta Center
Sun 03:54:06 PM 34.6003 -83.4156 171° South 135 155 10,200  Climbing Atlanta Center
Sun 03:55:06 PM 34.5606 -83.3981 160° South 146 168 10,100 -100 Descending Atlanta Center
Sun 03:56:06 PM 34.5231 -83.3858 165° South 146 168 10,000  Descending Atlanta Center
Sun 03:57:06 PM 34.4894 -83.3758 166° South 141 162 10,100 50 Climbing Atlanta Center
Sun 03:58:06 PM 34.4539 -83.3636 164° South 135 155 10,100 50 Level Atlanta Center
Sun 03:59:06 PM 34.4164 -83.3539 168° South 135 155 10,200  Climbing Atlanta Center
Sun 04:00:06 PM 34.3808 -83.3442 167° South 141 162 10,100 -50 Descending Atlanta Center
Sun 04:01:06 PM 34.3453 -83.3319 164° South 141 162 10,100 50 Level Atlanta Center
Sun 04:02:06 PM 34.3097 -83.3219 167° South 141 162 10,200 50 Climbing Atlanta Center
Sun 04:03:06 PM 34.2700 -83.3072 163° South 141 162 10,200 -50 Level Atlanta Center
Sun 04:04:06 PM 34.2322 -83.2925 162° South 146 168 10,100  Descending Atlanta Center
Sun 04:05:06 PM 34.1925 -83.2778 163° South 146 168 10,200  Climbing Atlanta Center
Sun 04:06:06 PM 34.1550 -83.2681 168° South 146 168 10,100 -50 Descending Atlanta Center
Sun 04:07:06 PM 34.1131 -83.2533 164° South 146 168 10,100  Level Atlanta Center
Sun 04:08:06 PM 34.0797 -83.2411 163° South 141 162 10,100  Level Atlanta Center
Sun 04:09:06 PM 34.0378 -83.2317 169° South 154 177 10,100 250 Level Atlanta Center
Sun 04:10:06 PM 34.0086 -83.2194 161° South 142 163 10,600 500 Climbing Atlanta Center
Sun 04:11:06 PM 33.9772 -83.2122 169° South 121 139 11,100 300 Climbing Atlanta Center
Sun 04:12:06 PM 33.9481 -83.2050 168° South 109 125 11,200  Climbing Atlanta Center
Sun 04:13:06 PM 33.9125 -83.1953 167° South 127 146 11,100  Descending Atlanta Center
Sun 04:14:06 PM 33.8789 -83.1856 166° South 127 146 11,200 50 Climbing Atlanta Center
Sun 04:15:06 PM 33.8433 -83.1783 170° South 127 146 11,200 -50 Level Atlanta Center
Sun 04:16:06 PM 33.8100 -83.1636 160° South 127 146 11,100  Descending Atlanta Center
Sun 04:17:06 PM 33.7786 -83.1567 170° South 122 140 11,200 50 Climbing Atlanta Center
Sun 04:18:06 PM 33.7389 -83.1444 166° South 132 152 11,200  Level Atlanta Center
Sun 04:19:06 PM 33.7011 -83.1350 168° South 132 152 11,200 -50 Level Atlanta Center
Sun 04:20:06 PM 33.6656 -83.1228 164° South 132 152 11,100 -50 Descending Atlanta Center
Sun 04:21:06 PM 33.6300 -83.1131 167° South 132 152 11,100  Level Atlanta Center
Sun 04:22:06 PM 33.5967 -83.1036 167° South 127 146 11,100  Level Atlanta Center
Sun 04:23:06 PM 33.5589 -83.0939 168° South 127 146 11,100 -50 Level Atlanta Center
Sun 04:24:06 PM 33.5275 -83.0844 166° South 127 146 11,000 -50 Descending Atlanta Center
Sun 04:25:06 PM 33.4942 -83.0747 166° South 122 140 11,000  Level Atlanta Center
Sun 04:26:06 PM 33.4586 -83.0653 168° South 128 147 11,000 50 Level Atlanta Center
Sun 04:27:06 PM 33.4292 -83.0506 157° South 121 139 11,100 50 Climbing Atlanta Center
Sun 04:28:06 PM 33.3956 -83.0411 167° South 126 145 11,100  Level Atlanta Center
Sun 04:29:06 PM 33.3600 -83.0317 167° South 121 139 11,100 -50 Level Atlanta Center
Sun 04:30:06 PM 33.3289 -83.0244 169° South 127 146 11,000 -50 Descending Atlanta Center
Sun 04:31:06 PM 33.2953 -83.0150 167° South 127 146 11,000 50 Level Atlanta Center
Sun 04:32:06 PM 33.2597 -83.0003 161° South 127 146 11,100 50 Climbing Atlanta Center
Sun 04:33:06 PM 33.2283 -82.9958 173° South 122 140 11,100  Level Atlanta Center
Sun 04:34:06 PM 33.1969 -82.9839 162° South 120 138 11,100  Level Atlanta Center
Sun 04:35:06 PM 33.1614 -82.9742 167° South 120 138 11,100  Level Atlanta Center
Sun 04:36:06 PM 33.1217 -82.9697 175° South 126 145 11,100  Level Atlanta Center
Sun 04:37:06 PM 33.0861 -82.9603 167° South 131 151 11,100  Level Atlanta Center
Sun 04:38:06 PM 33.0547 -82.9483 162° South 126 145 11,100 50 Level Atlanta Center
Sun 04:39:06 PM 33.0233 -82.9364 162° South 126 145 11,200  Climbing Atlanta Center
Sun 04:40:06 PM 32.9878 -82.9244 164° South 126 145 11,100  Descending Atlanta Center
Sun 04:41:06 PM 32.9522 -82.9150 167° South 126 145 11,200 50 Climbing Atlanta Center
Sun 04:42:06 PM 32.9208 -82.9078 169° South 126 145 11,200  Level Atlanta Center
Sun 04:43:06 PM 32.8872 -82.8936 161° South 126 145 11,200 -50 Level Atlanta Center
Sun 04:44:06 PM 32.8517 -82.8842 167° South 126 145 11,100 -50 Descending Atlanta Center
Sun 04:45:06 PM 32.8161 -82.8772 171° South 126 145 11,100 50 Level Atlanta Center
Sun 04:46:06 PM 32.7825 -82.8653 163° South 126 145 11,200  Climbing Atlanta Center
Sun 04:47:06 PM 32.7492 -82.8558 167° South 126 145 11,100 -50 Descending Atlanta Center
Sun 04:48:06 PM 32.7094 -82.8464 169° South 126 145 11,100 -33 Level Atlanta Center
Sun 04:50:09 PM 32.6383 -82.8308 170° South 126 145 11,000  Descending Jacksonville Center
Sun 04:51:09 PM 32.6050 -82.8211 166° South 126 145 11,100 50 Climbing Jacksonville Center
Sun 04:52:09 PM 32.5694 -82.8111 167° South 126 145 11,100 -50 Level Jacksonville Center
Sun 04:53:09 PM 32.5339 -82.7964 161° South 126 145 11,000 -50 Descending Jacksonville Center
Sun 04:54:09 PM 32.5006 -82.7939 176° South 126 145 11,000 50 Level Jacksonville Center
Sun 04:55:09 PM 32.4650 -82.7842 167° South 126 145 11,100 100 Climbing Jacksonville Center
Sun 04:56:09 PM 32.4317 -82.7744 166° South 126 145 11,200 50 Climbing Jacksonville Center
Sun 04:57:09 PM 32.4025 -82.7647 164° South 126 145 11,200 -100 Level Jacksonville Center
Sun 04:58:09 PM 32.3689 -82.7475 157° South 128 147 11,000 -150 Descending Jacksonville Center
Sun 04:59:09 PM 32.3333 -82.7353 164° South 128 147 10,900 -100 Descending Jacksonville Center
Sun 05:00:09 PM 32.3000 -82.7278 169° South 128 147 10,800 -300 Descending Jacksonville Center
Sun 05:01:09 PM 32.2625 -82.7206 171° South 128 147 10,300 -500 Descending Jacksonville Center
Sun 05:02:09 PM 32.2269 -82.7133 170° South 128 147 9,800 -500 Descending Jacksonville Center
Sun 05:03:09 PM 32.1853 -82.7011 166° South 139 160 9,300 -400 Descending Jacksonville Center
Sun 05:04:09 PM 32.1517 -82.6939 170° South 139 160 9,000 -400 Descending Jacksonville Center
Sun 05:05:09 PM 32.1164 -82.6817 164° South 139 160 8,500 -500 Descending Jacksonville Center
Sun 05:06:09 PM 32.0828 -82.6669 160° South 139 160 8,000 -500 Descending Jacksonville Center
Sun 05:07:09 PM 32.0494 -82.6547 163° South 134 154 7,500 -500 Descending Jacksonville Center
Sun 05:08:09 PM 32.0117 -82.6403 162° South 134 154 7,000 -400 Descending Jacksonville Center
Sun 05:09:09 PM 31.9806 -82.6306 165° South 124 143 6,700 -350 Descending Jacksonville Center
Sun 05:10:09 PM 31.9469 -82.6233 170° South 124 143 6,300 -400 Descending Jacksonville Center
Sun 05:11:09 PM 31.9136 -82.6111 163° South 124 143 5,900 -450 Descending Jacksonville Center
Sun 05:12:09 PM 31.8781 -82.6039 170° South 129 148 5,400 -550 Descending Jacksonville Center
Sun 05:13:09 PM 31.8447 -82.5917 163° South 129 148 4,800 -550 Descending Jacksonville Center
Sun 05:14:09 PM 31.8111 -82.5819 166° South 124 143 4,300 -350 Descending Jacksonville Center
Sun 05:15:09 PM 31.7778 -82.5725 166° South 124 143 4,100 -200 Descending Jacksonville Center
Sun 05:16:09 PM 31.7361 -82.5653 172° South 124 143 3,900 -200 Descending Jacksonville Center

Login

Don't have an account? Register now (free) for customized features, flight alerts, and more!